sensor_id;sensor_type;location;lat;lon;timestamp;P1;durP1;ratioP1;P2;durP2;ratioP2
22240;SDS011;11289;52.524;13.694;2023-08-06T00:00:38;9.43;;;8.48;;
22240;SDS011;11289;52.524;13.694;2023-08-06T00:03:04;7.97;;;7.18;;
22240;SDS011;11289;52.524;13.694;2023-08-06T00:05:30;10.10;;;7.93;;
22240;SDS011;11289;52.524;13.694;2023-08-06T00:07:56;8.20;;;7.38;;
22240;SDS011;11289;52.524;13.694;2023-08-06T00:10:22;9.85;;;7.43;;
22240;SDS011;11289;52.524;13.694;2023-08-06T00:12:48;8.77;;;7.47;;
22240;SDS011;11289;52.524;13.694;2023-08-06T00:15:14;7.93;;;7.18;;
22240;SDS011;11289;52.524;13.694;2023-08-06T00:17:40;8.27;;;7.15;;
22240;SDS011;11289;52.524;13.694;2023-08-06T00:20:06;7.80;;;6.75;;
22240;SDS011;11289;52.524;13.694;2023-08-06T00:22:33;8.38;;;7.57;;
22240;SDS011;11289;52.524;13.694;2023-08-06T00:25:01;9.57;;;6.90;;
22240;SDS011;11289;52.524;13.694;2023-08-06T00:27:27;6.82;;;6.22;;
22240;SDS011;11289;52.524;13.694;2023-08-06T00:29:53;6.85;;;5.95;;
22240;SDS011;11289;52.524;13.694;2023-08-06T00:32:19;7.63;;;6.93;;
22240;SDS011;11289;52.524;13.694;2023-08-06T00:34:47;8.00;;;6.70;;
22240;SDS011;11289;52.524;13.694;2023-08-06T00:37:18;7.25;;;6.63;;
22240;SDS011;11289;52.524;13.694;2023-08-06T00:39:45;7.38;;;5.93;;
22240;SDS011;11289;52.524;13.694;2023-08-06T00:42:12;7.47;;;6.28;;
22240;SDS011;11289;52.524;13.694;2023-08-06T00:44:38;6.05;;;5.38;;
22240;SDS011;11289;52.524;13.694;2023-08-06T00:47:05;5.78;;;5.22;;
22240;SDS011;11289;52.524;13.694;2023-08-06T00:49:33;6.70;;;6.07;;
22240;SDS011;11289;52.524;13.694;2023-08-06T00:52:00;6.28;;;5.65;;
22240;SDS011;11289;52.524;13.694;2023-08-06T00:54:26;6.40;;;5.85;;
22240;SDS011;11289;52.524;13.694;2023-08-06T00:56:53;6.90;;;5.60;;
22240;SDS011;11289;52.524;13.694;2023-08-06T00:59:19;6.25;;;5.65;;
22240;SDS011;11289;52.524;13.694;2023-08-06T01:01:45;7.57;;;5.97;;
22240;SDS011;11289;52.524;13.694;2023-08-06T01:04:13;6.80;;;6.20;;
22240;SDS011;11289;52.524;13.694;2023-08-06T01:06:47;6.90;;;5.72;;
22240;SDS011;11289;52.524;13.694;2023-08-06T01:13:33;6.72;;;6.10;;
22240;SDS011;11289;52.524;13.694;2023-08-06T01:16:53;6.30;;;5.70;;
22240;SDS011;11289;52.524;13.694;2023-08-06T01:21:03;7.72;;;6.80;;
22240;SDS011;11289;52.524;13.694;2023-08-06T01:23:29;8.02;;;6.10;;
22240;SDS011;11289;52.524;13.694;2023-08-06T01:29:11;7.28;;;6.05;;
22240;SDS011;11289;52.524;13.694;2023-08-06T01:31:15;6.45;;;5.85;;
22240;SDS011;11289;52.524;13.694;2023-08-06T01:33:47;7.03;;;6.25;;
22240;SDS011;11289;52.524;13.694;2023-08-06T01:36:17;7.28;;;6.25;;
22240;SDS011;11289;52.524;13.694;2023-08-06T01:38:45;8.75;;;5.88;;
22240;SDS011;11289;52.524;13.694;2023-08-06T01:41:15;7.70;;;6.30;;
22240;SDS011;11289;52.524;13.694;2023-08-06T01:43:41;5.63;;;5.13;;
22240;SDS011;11289;52.524;13.694;2023-08-06T01:46:07;6.05;;;5.45;;
22240;SDS011;11289;52.524;13.694;2023-08-06T01:48:33;7.57;;;6.22;;
22240;SDS011;11289;52.524;13.694;2023-08-06T01:50:59;6.97;;;5.93;;
22240;SDS011;11289;52.524;13.694;2023-08-06T01:53:25;6.20;;;5.57;;
22240;SDS011;11289;52.524;13.694;2023-08-06T01:55:51;6.13;;;5.55;;
22240;SDS011;11289;52.524;13.694;2023-08-06T01:58:17;6.30;;;5.70;;
22240;SDS011;11289;52.524;13.694;2023-08-06T02:00:43;6.43;;;5.70;;
22240;SDS011;11289;52.524;13.694;2023-08-06T02:03:09;7.88;;;5.07;;
22240;SDS011;11289;52.524;13.694;2023-08-06T02:05:35;7.10;;;5.95;;
22240;SDS011;11289;52.524;13.694;2023-08-06T02:08:01;6.38;;;5.75;;
22240;SDS011;11289;52.524;13.694;2023-08-06T02:10:27;6.40;;;5.85;;
22240;SDS011;11289;52.524;13.694;2023-08-06T02:12:53;6.65;;;6.05;;
22240;SDS011;11289;52.524;13.694;2023-08-06T02:15:19;6.97;;;6.10;;
22240;SDS011;11289;52.524;13.694;2023-08-06T02:17:45;7.22;;;6.00;;
22240;SDS011;11289;52.524;13.694;2023-08-06T02:20:11;6.78;;;6.13;;
22240;SDS011;11289;52.524;13.694;2023-08-06T02:22:37;6.80;;;6.10;;
22240;SDS011;11289;52.524;13.694;2023-08-06T02:25:03;10.05;;;7.03;;
22240;SDS011;11289;52.524;13.694;2023-08-06T02:27:29;7.28;;;6.10;;
22240;SDS011;11289;52.524;13.694;2023-08-06T02:29:55;7.28;;;5.82;;
22240;SDS011;11289;52.524;13.694;2023-08-06T02:32:21;6.05;;;5.55;;
22240;SDS011;11289;52.524;13.694;2023-08-06T02:34:47;6.47;;;5.88;;
22240;SDS011;11289;52.524;13.694;2023-08-06T02:37:13;6.63;;;5.63;;
22240;SDS011;11289;52.524;13.694;2023-08-06T02:39:39;5.45;;;4.95;;
22240;SDS011;11289;52.524;13.694;2023-08-06T02:42:06;7.15;;;5.85;;
22240;SDS011;11289;52.524;13.694;2023-08-06T02:44:33;6.95;;;5.47;;
22240;SDS011;11289;52.524;13.694;2023-08-06T02:47:00;7.60;;;4.93;;
22240;SDS011;11289;52.524;13.694;2023-08-06T02:49:26;5.93;;;5.20;;
22240;SDS011;11289;52.524;13.694;2023-08-06T02:51:52;5.05;;;4.55;;
22240;SDS011;11289;52.524;13.694;2023-08-06T02:54:18;5.40;;;4.57;;
22240;SDS011;11289;52.524;13.694;2023-08-06T02:56:45;7.38;;;5.38;;
22240;SDS011;11289;52.524;13.694;2023-08-06T02:59:12;5.70;;;4.88;;
22240;SDS011;11289;52.524;13.694;2023-08-06T03:01:39;5.53;;;4.70;;
22240;SDS011;11289;52.524;13.694;2023-08-06T03:04:05;5.68;;;4.75;;
22240;SDS011;11289;52.524;13.694;2023-08-06T03:06:31;7.25;;;5.25;;
22240;SDS011;11289;52.524;13.694;2023-08-06T03:08:57;5.10;;;4.50;;
22240;SDS011;11289;52.524;13.694;2023-08-06T03:11:23;6.72;;;5.30;;
22240;SDS011;11289;52.524;13.694;2023-08-06T03:13:49;5.53;;;4.40;;
22240;SDS011;11289;52.524;13.694;2023-08-06T03:16:15;6.18;;;5.35;;
22240;SDS011;11289;52.524;13.694;2023-08-06T03:18:41;6.97;;;5.00;;
22240;SDS011;11289;52.524;13.694;2023-08-06T03:21:07;5.50;;;4.70;;
22240;SDS011;11289;52.524;13.694;2023-08-06T03:23:33;6.72;;;4.50;;
22240;SDS011;11289;52.524;13.694;2023-08-06T03:26:02;6.75;;;5.45;;
22240;SDS011;11289;52.524;13.694;2023-08-06T03:28:28;6.90;;;4.82;;
22240;SDS011;11289;52.524;13.694;2023-08-06T03:31:01;7.57;;;5.18;;
22240;SDS011;11289;52.524;13.694;2023-08-06T03:33:30;6.85;;;5.15;;
22240;SDS011;11289;52.524;13.694;2023-08-06T03:35:56;6.82;;;4.72;;
22240;SDS011;11289;52.524;13.694;2023-08-06T03:38:22;5.70;;;4.55;;
22240;SDS011;11289;52.524;13.694;2023-08-06T03:40:48;5.75;;;5.13;;
22240;SDS011;11289;52.524;13.694;2023-08-06T03:43:15;6.55;;;5.40;;
22240;SDS011;11289;52.524;13.694;2023-08-06T03:45:41;7.20;;;5.45;;
22240;SDS011;11289;52.524;13.694;2023-08-06T03:48:07;5.95;;;5.35;;
22240;SDS011;11289;52.524;13.694;2023-08-06T03:50:34;7.72;;;5.38;;
22240;SDS011;11289;52.524;13.694;2023-08-06T03:53:00;6.38;;;5.28;;
22240;SDS011;11289;52.524;13.694;2023-08-06T03:55:26;5.85;;;4.57;;
22240;SDS011;11289;52.524;13.694;2023-08-06T03:57:52;7.65;;;5.72;;
22240;SDS011;11289;52.524;13.694;2023-08-06T04:00:18;8.07;;;6.07;;
22240;SDS011;11289;52.524;13.694;2023-08-06T04:02:44;8.07;;;5.93;;
22240;SDS011;11289;52.524;13.694;2023-08-06T04:05:11;5.93;;;5.32;;
22240;SDS011;11289;52.524;13.694;2023-08-06T04:07:37;6.75;;;5.70;;
22240;SDS011;11289;52.524;13.694;2023-08-06T04:10:04;7.55;;;6.20;;
22240;SDS011;11289;52.524;13.694;2023-08-06T04:12:31;7.03;;;5.75;;
22240;SDS011;11289;52.524;13.694;2023-08-06T04:15:01;6.85;;;5.70;;
22240;SDS011;11289;52.524;13.694;2023-08-06T04:17:29;6.72;;;6.03;;
22240;SDS011;11289;52.524;13.694;2023-08-06T04:19:55;6.90;;;5.78;;
22240;SDS011;11289;52.524;13.694;2023-08-06T04:22:24;6.28;;;5.47;;
22240;SDS011;11289;52.524;13.694;2023-08-06T04:24:50;6.75;;;6.05;;
22240;SDS011;11289;52.524;13.694;2023-08-06T04:27:16;7.72;;;5.97;;
22240;SDS011;11289;52.524;13.694;2023-08-06T04:29:43;6.25;;;5.65;;
22240;SDS011;11289;52.524;13.694;2023-08-06T04:32:10;6.70;;;6.07;;
22240;SDS011;11289;52.524;13.694;2023-08-06T04:34:36;6.78;;;6.07;;
22240;SDS011;11289;52.524;13.694;2023-08-06T04:37:05;5.93;;;4.95;;
22240;SDS011;11289;52.524;13.694;2023-08-06T04:39:31;7.30;;;5.43;;
22240;SDS011;11289;52.524;13.694;2023-08-06T04:41:57;7.00;;;5.95;;
22240;SDS011;11289;52.524;13.694;2023-08-06T04:44:23;6.07;;;5.47;;
22240;SDS011;11289;52.524;13.694;2023-08-06T04:46:49;6.38;;;5.32;;
22240;SDS011;11289;52.524;13.694;2023-08-06T04:49:16;6.22;;;5.63;;
22240;SDS011;11289;52.524;13.694;2023-08-06T04:51:42;5.80;;;5.20;;
22240;SDS011;11289;52.524;13.694;2023-08-06T04:54:08;5.88;;;5.18;;
22240;SDS011;11289;52.524;13.694;2023-08-06T04:56:34;6.20;;;5.53;;
22240;SDS011;11289;52.524;13.694;2023-08-06T04:59:00;6.32;;;5.65;;
22240;SDS011;11289;52.524;13.694;2023-08-06T05:01:26;5.88;;;5.18;;
22240;SDS011;11289;52.524;13.694;2023-08-06T05:03:52;6.00;;;5.40;;
22240;SDS011;11289;52.524;13.694;2023-08-06T05:06:18;5.53;;;5.03;;
22240;SDS011;11289;52.524;13.694;2023-08-06T05:08:44;6.00;;;5.13;;
22240;SDS011;11289;52.524;13.694;2023-08-06T05:11:10;5.60;;;5.10;;
22240;SDS011;11289;52.524;13.694;2023-08-06T05:13:36;5.78;;;5.00;;
22240;SDS011;11289;52.524;13.694;2023-08-06T05:16:02;5.50;;;4.57;;
22240;SDS011;11289;52.524;13.694;2023-08-06T05:18:28;5.32;;;4.53;;
22240;SDS011;11289;52.524;13.694;2023-08-06T05:20:56;5.75;;;5.15;;
22240;SDS011;11289;52.524;13.694;2023-08-06T05:23:22;5.20;;;4.70;;
22240;SDS011;11289;52.524;13.694;2023-08-06T05:25:48;5.20;;;4.70;;
22240;SDS011;11289;52.524;13.694;2023-08-06T05:28:14;5.70;;;4.65;;
22240;SDS011;11289;52.524;13.694;2023-08-06T05:30:40;5.20;;;4.70;;
22240;SDS011;11289;52.524;13.694;2023-08-06T05:33:07;6.82;;;5.20;;
22240;SDS011;11289;52.524;13.694;2023-08-06T05:35:33;6.30;;;5.70;;
22240;SDS011;11289;52.524;13.694;2023-08-06T05:37:59;6.07;;;5.47;;
22240;SDS011;11289;52.524;13.694;2023-08-06T05:40:25;6.13;;;5.53;;
22240;SDS011;11289;52.524;13.694;2023-08-06T05:42:53;8.80;;;6.13;;
22240;SDS011;11289;52.524;13.694;2023-08-06T05:45:19;6.20;;;5.45;;
22240;SDS011;11289;52.524;13.694;2023-08-06T05:47:47;7.07;;;5.25;;
22240;SDS011;11289;52.524;13.694;2023-08-06T05:50:14;6.60;;;5.57;;
22240;SDS011;11289;52.524;13.694;2023-08-06T05:52:40;5.70;;;5.20;;
22240;SDS011;11289;52.524;13.694;2023-08-06T05:55:06;6.13;;;5.25;;
22240;SDS011;11289;52.524;13.694;2023-08-06T05:57:32;5.47;;;4.95;;
22240;SDS011;11289;52.524;13.694;2023-08-06T05:59:58;5.80;;;4.38;;
22240;SDS011;11289;52.524;13.694;2023-08-06T06:02:24;5.50;;;4.55;;
22240;SDS011;11289;52.524;13.694;2023-08-06T06:04:50;5.25;;;4.60;;
22240;SDS011;11289;52.524;13.694;2023-08-06T06:07:17;4.70;;;3.85;;
22240;SDS011;11289;52.524;13.694;2023-08-06T06:09:43;5.82;;;5.22;;
22240;SDS011;11289;52.524;13.694;2023-08-06T06:12:09;5.80;;;4.70;;
22240;SDS011;11289;52.524;13.694;2023-08-06T06:14:35;6.35;;;5.03;;
22240;SDS011;11289;52.524;13.694;2023-08-06T06:17:01;6.13;;;4.35;;
22240;SDS011;11289;52.524;13.694;2023-08-06T06:19:28;7.63;;;4.68;;
22240;SDS011;11289;52.524;13.694;2023-08-06T06:21:55;5.70;;;5.03;;
22240;SDS011;11289;52.524;13.694;2023-08-06T06:24:25;6.57;;;5.05;;
22240;SDS011;11289;52.524;13.694;2023-08-06T06:26:51;6.25;;;4.38;;
22240;SDS011;11289;52.524;13.694;2023-08-06T06:29:17;5.43;;;4.82;;
22240;SDS011;11289;52.524;13.694;2023-08-06T06:31:43;5.68;;;5.15;;
22240;SDS011;11289;52.524;13.694;2023-08-06T06:34:09;7.75;;;4.97;;
22240;SDS011;11289;52.524;13.694;2023-08-06T06:36:35;7.60;;;5.60;;
22240;SDS011;11289;52.524;13.694;2023-08-06T06:39:01;5.60;;;4.82;;
22240;SDS011;11289;52.524;13.694;2023-08-06T06:41:29;5.93;;;5.03;;
22240;SDS011;11289;52.524;13.694;2023-08-06T06:43:57;6.45;;;5.43;;
22240;SDS011;11289;52.524;13.694;2023-08-06T06:46:23;7.30;;;5.10;;
22240;SDS011;11289;52.524;13.694;2023-08-06T06:48:49;5.57;;;5.00;;
22240;SDS011;11289;52.524;13.694;2023-08-06T06:51:15;5.57;;;4.93;;
22240;SDS011;11289;52.524;13.694;2023-08-06T06:53:43;5.78;;;5.18;;
22240;SDS011;11289;52.524;13.694;2023-08-06T06:56:11;6.50;;;5.32;;
22240;SDS011;11289;52.524;13.694;2023-08-06T06:58:38;6.35;;;5.47;;
22240;SDS011;11289;52.524;13.694;2023-08-06T07:01:05;7.32;;;5.80;;
22240;SDS011;11289;52.524;13.694;2023-08-06T07:03:31;7.20;;;6.50;;
22240;SDS011;11289;52.524;13.694;2023-08-06T07:05:58;6.07;;;5.53;;
22240;SDS011;11289;52.524;13.694;2023-08-06T07:08:26;7.80;;;6.45;;
22240;SDS011;11289;52.524;13.694;2023-08-06T07:11:00;8.02;;;6.45;;
22240;SDS011;11289;52.524;13.694;2023-08-06T07:13:27;7.22;;;6.45;;
22240;SDS011;11289;52.524;13.694;2023-08-06T07:15:54;8.70;;;6.88;;
22240;SDS011;11289;52.524;13.694;2023-08-06T07:18:21;7.97;;;7.28;;
22240;SDS011;11289;52.524;13.694;2023-08-06T07:20:50;7.50;;;6.80;;
22240;SDS011;11289;52.524;13.694;2023-08-06T07:23:18;7.80;;;7.10;;
22240;SDS011;11289;52.524;13.694;2023-08-06T07:25:46;7.45;;;6.75;;
22240;SDS011;11289;52.524;13.694;2023-08-06T07:28:14;7.47;;;6.78;;
22240;SDS011;11289;52.524;13.694;2023-08-06T07:30:40;8.30;;;7.50;;
22240;SDS011;11289;52.524;13.694;2023-08-06T07:33:07;8.35;;;7.15;;
22240;SDS011;11289;52.524;13.694;2023-08-06T07:35:34;10.68;;;7.55;;
22240;SDS011;11289;52.524;13.694;2023-08-06T07:38:00;8.80;;;7.93;;
22240;SDS011;11289;52.524;13.694;2023-08-06T07:40:26;8.07;;;7.28;;
22240;SDS011;11289;52.524;13.694;2023-08-06T07:42:52;8.50;;;7.60;;
22240;SDS011;11289;52.524;13.694;2023-08-06T07:45:18;8.00;;;7.20;;
22240;SDS011;11289;52.524;13.694;2023-08-06T07:47:44;8.32;;;7.53;;
22240;SDS011;11289;52.524;13.694;2023-08-06T07:50:10;9.32;;;8.10;;
22240;SDS011;11289;52.524;13.694;2023-08-06T07:52:36;8.82;;;7.93;;
22240;SDS011;11289;52.524;13.694;2023-08-06T07:55:02;8.38;;;7.07;;
22240;SDS011;11289;52.524;13.694;2023-08-06T07:57:30;8.60;;;7.10;;
22240;SDS011;11289;52.524;13.694;2023-08-06T07:59:57;8.55;;;7.65;;
22240;SDS011;11289;52.524;13.694;2023-08-06T08:02:23;8.32;;;7.45;;
22240;SDS011;11289;52.524;13.694;2023-08-06T08:04:50;10.05;;;9.05;;
22240;SDS011;11289;52.524;13.694;2023-08-06T08:07:16;8.55;;;7.70;;
22240;SDS011;11289;52.524;13.694;2023-08-06T08:09:42;11.45;;;8.70;;
22240;SDS011;11289;52.524;13.694;2023-08-06T08:12:10;8.50;;;7.55;;
22240;SDS011;11289;52.524;13.694;2023-08-06T08:14:36;9.18;;;8.35;;
22240;SDS011;11289;52.524;13.694;2023-08-06T08:17:02;9.45;;;8.55;;
22240;SDS011;11289;52.524;13.694;2023-08-06T08:19:29;8.15;;;7.45;;
22240;SDS011;11289;52.524;13.694;2023-08-06T08:21:55;8.77;;;7.97;;
22240;SDS011;11289;52.524;13.694;2023-08-06T08:24:21;8.75;;;7.90;;
22240;SDS011;11289;52.524;13.694;2023-08-06T08:26:51;8.77;;;7.00;;
22240;SDS011;11289;52.524;13.694;2023-08-06T08:29:19;9.73;;;7.88;;
22240;SDS011;11289;52.524;13.694;2023-08-06T08:31:45;9.65;;;8.65;;
22240;SDS011;11289;52.524;13.694;2023-08-06T08:34:11;9.20;;;8.20;;
22240;SDS011;11289;52.524;13.694;2023-08-06T08:36:37;9.65;;;7.97;;
22240;SDS011;11289;52.524;13.694;2023-08-06T08:39:03;9.20;;;8.27;;
22240;SDS011;11289;52.524;13.694;2023-08-06T08:41:31;9.73;;;8.13;;
22240;SDS011;11289;52.524;13.694;2023-08-06T08:43:58;10.48;;;9.35;;
22240;SDS011;11289;52.524;13.694;2023-08-06T08:46:26;10.38;;;7.97;;
22240;SDS011;11289;52.524;13.694;2023-08-06T08:48:53;10.55;;;9.40;;
22240;SDS011;11289;52.524;13.694;2023-08-06T08:51:20;10.25;;;9.18;;
22240;SDS011;11289;52.524;13.694;2023-08-06T08:53:55;10.63;;;9.52;;
22240;SDS011;11289;52.524;13.694;2023-08-06T08:56:24;10.90;;;9.52;;
22240;SDS011;11289;52.524;13.694;2023-08-06T08:58:50;10.65;;;9.55;;
22240;SDS011;11289;52.524;13.694;2023-08-06T09:01:18;11.88;;;10.70;;
22240;SDS011;11289;52.524;13.694;2023-08-06T09:03:47;11.52;;;10.23;;
22240;SDS011;11289;52.524;13.694;2023-08-06T09:06:15;11.25;;;9.90;;
22240;SDS011;11289;52.524;13.694;2023-08-06T09:08:45;12.45;;;10.57;;
22240;SDS011;11289;52.524;13.694;2023-08-06T09:11:16;10.93;;;9.88;;
22240;SDS011;11289;52.524;13.694;2023-08-06T09:13:46;11.32;;;10.10;;
22240;SDS011;11289;52.524;13.694;2023-08-06T09:16:13;12.07;;;10.27;;
22240;SDS011;11289;52.524;13.694;2023-08-06T09:18:39;11.90;;;10.57;;
22240;SDS011;11289;52.524;13.694;2023-08-06T09:21:12;12.82;;;9.65;;
22240;SDS011;11289;52.524;13.694;2023-08-06T09:23:39;11.38;;;10.10;;
22240;SDS011;11289;52.524;13.694;2023-08-06T09:26:05;10.20;;;9.15;;
22240;SDS011;11289;52.524;13.694;2023-08-06T09:28:37;10.52;;;8.65;;
22240;SDS011;11289;52.524;13.694;2023-08-06T09:31:09;10.68;;;9.68;;
22240;SDS011;11289;52.524;13.694;2023-08-06T09:33:36;11.10;;;9.75;;
22240;SDS011;11289;52.524;13.694;2023-08-06T09:36:07;10.82;;;9.82;;
22240;SDS011;11289;52.524;13.694;2023-08-06T09:38:38;11.35;;;9.65;;
22240;SDS011;11289;52.524;13.694;2023-08-06T09:41:08;12.02;;;9.25;;
22240;SDS011;11289;52.524;13.694;2023-08-06T09:43:41;9.88;;;8.88;;
22240;SDS011;11289;52.524;13.694;2023-08-06T09:46:14;8.88;;;8.07;;
22240;SDS011;11289;52.524;13.694;2023-08-06T09:48:44;9.18;;;8.27;;
22240;SDS011;11289;52.524;13.694;2023-08-06T09:51:11;8.85;;;8.00;;
22240;SDS011;11289;52.524;13.694;2023-08-06T09:53:39;10.55;;;8.10;;
22240;SDS011;11289;52.524;13.694;2023-08-06T09:58:38;10.60;;;7.70;;
22240;SDS011;11289;52.524;13.694;2023-08-06T10:01:04;9.57;;;8.25;;
22240;SDS011;11289;52.524;13.694;2023-08-06T10:03:31;9.43;;;8.45;;
22240;SDS011;11289;52.524;13.694;2023-08-06T10:05:59;9.45;;;8.48;;
22240;SDS011;11289;52.524;13.694;2023-08-06T10:08:27;8.27;;;7.47;;
22240;SDS011;11289;52.524;13.694;2023-08-06T10:10:53;8.45;;;7.65;;
22240;SDS011;11289;52.524;13.694;2023-08-06T10:13:23;9.02;;;7.68;;
22240;SDS011;11289;52.524;13.694;2023-08-06T10:15:49;8.82;;;8.02;;
22240;SDS011;11289;52.524;13.694;2023-08-06T10:18:16;9.43;;;8.52;;
22240;SDS011;11289;52.524;13.694;2023-08-06T10:20:46;9.52;;;8.63;;
22240;SDS011;11289;52.524;13.694;2023-08-06T10:23:12;9.55;;;8.45;;
22240;SDS011;11289;52.524;13.694;2023-08-06T10:25:40;10.40;;;9.10;;
22240;SDS011;11289;52.524;13.694;2023-08-06T10:28:09;9.25;;;8.35;;
22240;SDS011;11289;52.524;13.694;2023-08-06T10:30:46;10.82;;;9.40;;
22240;SDS011;11289;52.524;13.694;2023-08-06T10:33:14;10.90;;;9.00;;
22240;SDS011;11289;52.524;13.694;2023-08-06T10:38:22;10.55;;;9.38;;
22240;SDS011;11289;52.524;13.694;2023-08-06T10:46:04;10.93;;;9.77;;
22240;SDS011;11289;52.524;13.694;2023-08-06T10:51:09;10.25;;;9.20;;
22240;SDS011;11289;52.524;13.694;2023-08-06T10:53:36;9.95;;;8.52;;
22240;SDS011;11289;52.524;13.694;2023-08-06T10:56:11;10.77;;;9.60;;
22240;SDS011;11289;52.524;13.694;2023-08-06T10:58:39;10.55;;;9.45;;
22240;SDS011;11289;52.524;13.694;2023-08-06T11:01:06;9.60;;;8.52;;
22240;SDS011;11289;52.524;13.694;2023-08-06T11:03:35;10.05;;;8.90;;
22240;SDS011;11289;52.524;13.694;2023-08-06T11:06:04;10.27;;;8.80;;
22240;SDS011;11289;52.524;13.694;2023-08-06T11:08:50;9.95;;;9.00;;
22240;SDS011;11289;52.524;13.694;2023-08-06T11:11:20;9.40;;;8.50;;
22240;SDS011;11289;52.524;13.694;2023-08-06T11:13:51;9.32;;;8.32;;
22240;SDS011;11289;52.524;13.694;2023-08-06T11:16:18;9.13;;;8.23;;
22240;SDS011;11289;52.524;13.694;2023-08-06T11:18:51;8.45;;;7.65;;
22240;SDS011;11289;52.524;13.694;2023-08-06T11:21:25;9.20;;;8.30;;
22240;SDS011;11289;52.524;13.694;2023-08-06T11:23:52;11.30;;;9.07;;
22240;SDS011;11289;52.524;13.694;2023-08-06T11:26:19;9.73;;;8.10;;
22240;SDS011;11289;52.524;13.694;2023-08-06T11:28:46;8.23;;;7.40;;
22240;SDS011;11289;52.524;13.694;2023-08-06T11:31:19;10.32;;;8.30;;
22240;SDS011;11289;52.524;13.694;2023-08-06T11:33:47;9.07;;;7.47;;
22240;SDS011;11289;52.524;13.694;2023-08-06T11:36:13;8.70;;;7.80;;
22240;SDS011;11289;52.524;13.694;2023-08-06T11:38:39;10.77;;;8.40;;
22240;SDS011;11289;52.524;13.694;2023-08-06T11:41:06;9.57;;;8.00;;
22240;SDS011;11289;52.524;13.694;2023-08-06T11:43:34;9.00;;;8.10;;
22240;SDS011;11289;52.524;13.694;2023-08-06T11:46:01;10.00;;;7.30;;
22240;SDS011;11289;52.524;13.694;2023-08-06T11:48:27;9.63;;;8.18;;
22240;SDS011;11289;52.524;13.694;2023-08-06T11:50:56;10.27;;;8.25;;
22240;SDS011;11289;52.524;13.694;2023-08-06T11:53:26;8.98;;;8.07;;
22240;SDS011;11289;52.524;13.694;2023-08-06T11:55:54;10.60;;;8.32;;
22240;SDS011;11289;52.524;13.694;2023-08-06T11:58:20;13.13;;;9.73;;
22240;SDS011;11289;52.524;13.694;2023-08-06T12:00:46;11.70;;;9.63;;
22240;SDS011;11289;52.524;13.694;2023-08-06T12:03:12;12.73;;;10.30;;
22240;SDS011;11289;52.524;13.694;2023-08-06T12:05:42;12.45;;;10.77;;
22240;SDS011;11289;52.524;13.694;2023-08-06T12:08:12;12.93;;;11.52;;
22240;SDS011;11289;52.524;13.694;2023-08-06T12:10:38;10.80;;;9.73;;
22240;SDS011;11289;52.524;13.694;2023-08-06T12:13:04;10.13;;;9.13;;
22240;SDS011;11289;52.524;13.694;2023-08-06T12:15:30;9.88;;;8.52;;
22240;SDS011;11289;52.524;13.694;2023-08-06T12:17:56;9.75;;;8.75;;
22240;SDS011;11289;52.524;13.694;2023-08-06T12:20:22;10.00;;;8.80;;
22240;SDS011;11289;52.524;13.694;2023-08-06T12:22:53;11.93;;;9.00;;
22240;SDS011;11289;52.524;13.694;2023-08-06T12:25:19;10.43;;;8.63;;
22240;SDS011;11289;52.524;13.694;2023-08-06T12:27:46;9.25;;;8.35;;
22240;SDS011;11289;52.524;13.694;2023-08-06T12:30:12;12.25;;;9.52;;
22240;SDS011;11289;52.524;13.694;2023-08-06T12:32:38;9.35;;;8.38;;
22240;SDS011;11289;52.524;13.694;2023-08-06T12:35:05;9.57;;;8.68;;
22240;SDS011;11289;52.524;13.694;2023-08-06T12:37:33;11.20;;;8.85;;
22240;SDS011;11289;52.524;13.694;2023-08-06T12:39:59;10.02;;;8.65;;
22240;SDS011;11289;52.524;13.694;2023-08-06T12:42:25;12.25;;;9.38;;
22240;SDS011;11289;52.524;13.694;2023-08-06T12:44:51;12.18;;;10.23;;
22240;SDS011;11289;52.524;13.694;2023-08-06T12:47:18;11.52;;;10.02;;
22240;SDS011;11289;52.524;13.694;2023-08-06T12:49:46;11.68;;;9.98;;
22240;SDS011;11289;52.524;13.694;2023-08-06T12:52:15;10.00;;;8.90;;
22240;SDS011;11289;52.524;13.694;2023-08-06T12:54:42;9.80;;;8.13;;
22240;SDS011;11289;52.524;13.694;2023-08-06T12:57:09;11.65;;;8.23;;
22240;SDS011;11289;52.524;13.694;2023-08-06T12:59:36;8.95;;;8.05;;
22240;SDS011;11289;52.524;13.694;2023-08-06T13:02:03;11.82;;;8.93;;
22240;SDS011;11289;52.524;13.694;2023-08-06T13:04:29;11.38;;;9.02;;
22240;SDS011;11289;52.524;13.694;2023-08-06T13:06:56;9.00;;;8.05;;
22240;SDS011;11289;52.524;13.694;2023-08-06T13:09:22;10.88;;;8.55;;
22240;SDS011;11289;52.524;13.694;2023-08-06T13:11:48;9.30;;;7.97;;
22240;SDS011;11289;52.524;13.694;2023-08-06T13:14:15;12.98;;;8.65;;
22240;SDS011;11289;52.524;13.694;2023-08-06T13:16:44;9.82;;;8.18;;
22240;SDS011;11289;52.524;13.694;2023-08-06T13:19:10;10.27;;;8.27;;
22240;SDS011;11289;52.524;13.694;2023-08-06T13:24:08;9.48;;;8.45;;
22240;SDS011;11289;52.524;13.694;2023-08-06T13:26:34;8.30;;;7.07;;
22240;SDS011;11289;52.524;13.694;2023-08-06T13:29:01;8.73;;;6.47;;
22240;SDS011;11289;52.524;13.694;2023-08-06T13:31:28;7.63;;;6.10;;
22240;SDS011;11289;52.524;13.694;2023-08-06T13:33:57;9.25;;;6.88;;
22240;SDS011;11289;52.524;13.694;2023-08-06T13:36:27;8.93;;;5.80;;
22240;SDS011;11289;52.524;13.694;2023-08-06T13:42:30;7.80;;;5.88;;
22240;SDS011;11289;52.524;13.694;2023-08-06T13:44:59;8.48;;;6.30;;
22240;SDS011;11289;52.524;13.694;2023-08-06T13:47:29;7.55;;;5.80;;
22240;SDS011;11289;52.524;13.694;2023-08-06T13:49:56;10.98;;;6.45;;
22240;SDS011;11289;52.524;13.694;2023-08-06T13:52:28;7.50;;;5.68;;
22240;SDS011;11289;52.524;13.694;2023-08-06T13:55:10;7.38;;;6.30;;
22240;SDS011;11289;52.524;13.694;2023-08-06T13:57:43;6.88;;;5.50;;
22240;SDS011;11289;52.524;13.694;2023-08-06T14:00:12;7.72;;;5.50;;
22240;SDS011;11289;52.524;13.694;2023-08-06T14:02:39;7.50;;;6.00;;
22240;SDS011;11289;52.524;13.694;2023-08-06T14:05:17;7.03;;;4.97;;
22240;SDS011;11289;52.524;13.694;2023-08-06T14:07:56;6.60;;;5.18;;
22240;SDS011;11289;52.524;13.694;2023-08-06T14:13:31;7.50;;;5.68;;
22240;SDS011;11289;52.524;13.694;2023-08-06T14:16:41;6.30;;;4.75;;
22240;SDS011;11289;52.524;13.694;2023-08-06T14:19:16;5.38;;;4.70;;
22240;SDS011;11289;52.524;13.694;2023-08-06T14:22:17;6.20;;;4.55;;
22240;SDS011;11289;52.524;13.694;2023-08-06T14:28:51;7.13;;;4.53;;
22240;SDS011;11289;52.524;13.694;2023-08-06T14:38:42;4.88;;;3.95;;
22240;SDS011;11289;52.524;13.694;2023-08-06T14:41:24;5.18;;;4.10;;
22240;SDS011;11289;52.524;13.694;2023-08-06T14:43:56;6.93;;;4.07;;
22240;SDS011;11289;52.524;13.694;2023-08-06T14:46:22;6.68;;;3.88;;
22240;SDS011;11289;52.524;13.694;2023-08-06T14:48:49;4.40;;;4.00;;
22240;SDS011;11289;52.524;13.694;2023-08-06T14:51:15;5.28;;;3.92;;
22240;SDS011;11289;52.524;13.694;2023-08-06T14:53:44;6.13;;;4.07;;
22240;SDS011;11289;52.524;13.694;2023-08-06T14:56:21;7.53;;;4.05;;
22240;SDS011;11289;52.524;13.694;2023-08-06T14:58:47;5.85;;;3.53;;
22240;SDS011;11289;52.524;13.694;2023-08-06T15:01:14;5.95;;;3.88;;
22240;SDS011;11289;52.524;13.694;2023-08-06T15:03:41;5.10;;;3.10;;
22240;SDS011;11289;52.524;13.694;2023-08-06T15:06:07;4.60;;;3.53;;
22240;SDS011;11289;52.524;13.694;2023-08-06T15:08:35;6.65;;;3.15;;
22240;SDS011;11289;52.524;13.694;2023-08-06T15:11:02;4.60;;;4.10;;
22240;SDS011;11289;52.524;13.694;2023-08-06T15:13:28;4.20;;;3.65;;
22240;SDS011;11289;52.524;13.694;2023-08-06T15:15:55;5.55;;;3.40;;